Time;durP1;ratioP1;P1;durP2;ratioP2;P2;SDS_P1;SDS_P2;PMS_P1;PMS_P2;Temp;Humidity;BMP_temperature;BMP_pressure;BME280_temperature;BME280_humidity;BME280_pressure;Samples;Min_cycle;Max_cycle;Signal;HPM_P1;HPM_P2
2023/02/05 00:02:20;;;;;;;56.60;26.70;;;;;;;;;;10471054;28;20024;-66
2023/02/05 00:07:20;;;;;;;49.58;25.13;;;;;;;;;;10488379;28;20041;-67
2023/02/05 00:12:21;;;;;;;48.28;24.35;;;;;;;;;;10489567;28;20028;-66
2023/02/05 00:17:21;;;;;;;48.25;23.52;;;;;;;;;;10478511;28;20025;-66
2023/02/05 00:22:22;;;;;;;47.85;23.58;;;;;;;;;;10476326;28;20028;-66
2023/02/05 00:27:22;;;;;;;46.20;22.88;;;;;;;;;;10489103;28;20112;-66
2023/02/05 00:32:23;;;;;;;45.58;21.85;;;;;;;;;;10488052;28;20035;-66
2023/02/05 00:37:24;;;;;;;56.00;23.10;;;;;;;;;;10489856;28;20056;-66
2023/02/05 00:42:24;;;;;;;43.88;21.35;;;;;;;;;;10488809;28;20025;-66
2023/02/05 00:47:25;;;;;;;39.72;20.33;;;;;;;;;;10487795;28;20039;-66
2023/02/05 00:52:25;;;;;;;44.38;20.85;;;;;;;;;;10489105;28;20468;-66
2023/02/05 00:57:26;;;;;;;41.25;20.70;;;;;;;;;;10482429;28;20576;-66
2023/02/05 01:02:27;;;;;;;43.05;21.00;;;;;;;;;;10486469;28;20137;-66
2023/02/05 01:07:27;;;;;;;42.70;20.73;;;;;;;;;;10480929;28;20032;-66
2023/02/05 01:12:28;;;;;;;39.45;19.98;;;;;;;;;;10488897;28;20020;-67
2023/02/05 01:17:28;;;;;;;38.05;18.92;;;;;;;;;;10481436;28;20480;-67
2023/02/05 01:22:29;;;;;;;37.70;19.50;;;;;;;;;;10496248;28;20020;-67
2023/02/05 01:27:32;;;;;;;39.60;18.60;;;;;;;;;;10488150;28;20567;-67
2023/02/05 01:32:34;;;;;;;36.97;17.58;;;;;;;;;;10495932;28;20025;-67
2023/02/05 01:37:34;;;;;;;31.25;16.90;;;;;;;;;;10492915;28;20031;-63
2023/02/05 01:42:35;;;;;;;35.13;18.35;;;;;;;;;;10495602;28;20025;-63
2023/02/05 01:47:36;;;;;;;32.25;17.65;;;;;;;;;;10494155;28;20028;-63
2023/02/05 01:52:36;;;;;;;34.83;16.60;;;;;;;;;;10493580;28;20036;-63
2023/02/05 01:57:38;;;;;;;34.15;17.02;;;;;;;;;;10477335;28;20040;-65
2023/02/05 02:02:38;;;;;;;30.33;15.98;;;;;;;;;;10488363;28;20028;-65
2023/02/05 02:07:40;;;;;;;29.48;16.70;;;;;;;;;;10476985;28;20472;-65
2023/02/05 02:12:42;;;;;;;26.75;15.80;;;;;;;;;;10493073;28;20059;-65
2023/02/05 02:17:47;;;;;;;26.95;15.23;;;;;;;;;;10482030;28;20021;-65
2023/02/05 02:22:53;;;;;;;25.48;14.95;;;;;;;;;;10483139;28;20028;-65
2023/02/05 02:28:20;;;;;;;25.83;14.75;;;;;;;;;;10485965;28;20039;-67
2023/02/05 02:33:52;;;;;;;29.48;14.95;;;;;;;;;;10492730;28;20388;-67
2023/02/05 02:39:01;;;;;;;28.73;15.90;;;;;;;;;;10464711;28;20024;-67
2023/02/05 02:44:13;;;;;;;26.38;14.18;;;;;;;;;;10491397;28;20060;-65
2023/02/05 02:49:26;;;;;;;28.00;14.80;;;;;;;;;;10489475;28;20036;-65
2023/02/05 02:54:27;;;;;;;21.60;13.07;;;;;;;;;;10471244;28;20514;-64
2023/02/05 02:59:31;;;;;;;21.08;13.30;;;;;;;;;;10491314;28;20060;-65
2023/02/05 03:05:00;;;;;;;23.45;13.30;;;;;;;;;;10487846;28;20025;-63
2023/02/05 03:10:17;;;;;;;21.30;11.98;;;;;;;;;;10492299;28;20090;-64
2023/02/05 03:15:18;;;;;;;23.55;13.23;;;;;;;;;;10485811;28;20360;-64
2023/02/05 03:20:32;;;;;;;28.00;13.68;;;;;;;;;;10489872;28;20028;-64
2023/02/05 03:25:32;;;;;;;20.67;11.57;;;;;;;;;;10474390;28;20028;-64
2023/02/05 03:31:02;;;;;;;23.48;12.32;;;;;;;;;;10489171;28;20454;-64
2023/02/05 03:36:43;;;;;;;23.73;12.27;;;;;;;;;;10472208;28;20027;-64
2023/02/05 03:42:11;;;;;;;21.40;11.90;;;;;;;;;;10490819;28;20024;-64
2023/02/05 03:47:34;;;;;;;16.98;11.13;;;;;;;;;;10463538;28;20062;-64
2023/02/05 03:52:42;;;;;;;18.52;11.23;;;;;;;;;;10490222;28;20090;-64
2023/02/05 03:57:55;;;;;;;17.75;11.40;;;;;;;;;;10481534;28;20499;-64
2023/02/05 04:02:56;;;;;;;19.27;11.07;;;;;;;;;;10486100;28;20032;-63
2023/02/05 04:07:56;;;;;;;17.05;9.50;;;;;;;;;;10488401;28;20111;-64
2023/02/05 04:12:57;;;;;;;16.70;10.20;;;;;;;;;;10489041;28;20021;-65
2023/02/05 04:17:58;;;;;;;18.00;10.40;;;;;;;;;;10482979;28;20384;-65
2023/02/05 04:22:58;;;;;;;15.35;9.30;;;;;;;;;;10489508;28;20419;-65
2023/02/05 04:27:59;;;;;;;14.98;9.80;;;;;;;;;;10487144;28;20049;-67
2023/02/05 04:32:59;;;;;;;18.55;10.77;;;;;;;;;;10485509;28;20028;-66
2023/02/05 04:38:00;;;;;;;16.95;10.13;;;;;;;;;;10483608;28;20028;-66
2023/02/05 04:43:01;;;;;;;14.35;9.77;;;;;;;;;;10485306;28;20052;-66
2023/02/05 04:48:01;;;;;;;15.98;10.68;;;;;;;;;;10479734;28;20048;-66
2023/02/05 04:53:02;;;;;;;14.95;10.15;;;;;;;;;;10495116;28;20016;-66
2023/02/05 04:58:02;;;;;;;19.15;10.50;;;;;;;;;;10485182;28;20051;-67
2023/02/05 05:03:03;;;;;;;14.55;9.55;;;;;;;;;;10497907;28;20020;-66
2023/02/05 05:08:04;;;;;;;16.60;9.68;;;;;;;;;;10491919;28;20028;-67
2023/02/05 05:13:04;;;;;;;19.77;9.88;;;;;;;;;;10490308;28;20047;-67
2023/02/05 05:18:05;;;;;;;16.98;10.70;;;;;;;;;;10493367;28;20024;-67
2023/02/05 05:23:05;;;;;;;25.98;9.90;;;;;;;;;;10496726;28;20055;-67
2023/02/05 05:28:06;;;;;;;13.98;9.45;;;;;;;;;;10486848;28;20045;-66
2023/02/05 05:33:07;;;;;;;14.00;9.82;;;;;;;;;;10493841;28;20016;-66
2023/02/05 05:38:08;;;;;;;16.50;8.68;;;;;;;;;;10488350;28;20495;-66
2023/02/05 05:48:34;;;;;;;16.73;8.57;;;;;;;;;;10491546;28;20032;-66
2023/02/05 05:53:34;;;;;;;14.63;8.40;;;;;;;;;;10482903;28;20058;-66
2023/02/05 05:58:35;;;;;;;11.85;8.32;;;;;;;;;;10476353;28;20036;-66
2023/02/05 06:03:36;;;;;;;13.32;8.00;;;;;;;;;;10494938;28;20023;-66
2023/02/05 06:08:36;;;;;;;14.68;8.63;;;;;;;;;;10493231;28;20025;-66
2023/02/05 06:13:37;;;;;;;11.65;8.35;;;;;;;;;;10494030;28;20384;-66
2023/02/05 06:18:38;;;;;;;13.52;7.75;;;;;;;;;;10492175;28;20037;-66
2023/02/05 06:23:38;;;;;;;13.73;7.43;;;;;;;;;;10494414;28;20021;-67
2023/02/05 06:28:39;;;;;;;15.93;8.27;;;;;;;;;;10483040;28;20064;-66
2023/02/05 06:33:39;;;;;;;11.70;6.85;;;;;;;;;;10494116;28;20111;-67
2023/02/05 06:38:40;;;;;;;12.85;7.53;;;;;;;;;;10473933;28;20029;-66
2023/02/05 06:43:40;;;;;;;12.10;7.55;;;;;;;;;;10493791;28;20025;-66
2023/02/05 06:48:41;;;;;;;12.60;7.03;;;;;;;;;;10491762;28;20086;-66
2023/02/05 06:53:42;;;;;;;11.48;7.32;;;;;;;;;;10491818;28;20483;-66
2023/02/05 06:58:43;;;;;;;9.73;6.85;;;;;;;;;;10493134;28;20033;-66
2023/02/05 07:03:43;;;;;;;16.85;7.28;;;;;;;;;;10485288;28;20025;-66
2023/02/05 07:08:46;;;;;;;18.85;7.15;;;;;;;;;;10490885;28;20490;-66
2023/02/05 07:13:47;;;;;;;9.88;6.80;;;;;;;;;;10488883;28;20024;-66
2023/02/05 07:18:47;;;;;;;10.20;6.50;;;;;;;;;;10485784;28;20017;-66
2023/02/05 07:23:48;;;;;;;14.70;7.03;;;;;;;;;;10492059;28;20262;-66
2023/02/05 07:28:49;;;;;;;13.70;6.78;;;;;;;;;;10481420;28;20037;-66
2023/02/05 07:33:49;;;;;;;14.57;6.80;;;;;;;;;;10473367;28;20032;-66
2023/02/05 07:38:50;;;;;;;10.35;7.22;;;;;;;;;;10491615;28;20020;-66
2023/02/05 07:43:51;;;;;;;7.63;6.07;;;;;;;;;;10489183;28;20082;-67
2023/02/05 07:48:53;;;;;;;9.40;6.25;;;;;;;;;;10490644;28;20032;-66
2023/02/05 07:53:53;;;;;;;9.65;6.07;;;;;;;;;;10488912;28;20091;-66
2023/02/05 07:58:54;;;;;;;8.32;6.10;;;;;;;;;;10490900;28;20571;-66
2023/02/05 08:03:54;;;;;;;8.43;6.43;;;;;;;;;;10490375;28;20364;-66
2023/02/05 08:08:56;;;;;;;8.38;5.88;;;;;;;;;;10488422;28;20028;-66
2023/02/05 08:13:56;;;;;;;11.20;6.03;;;;;;;;;;10489282;28;20048;-66
2023/02/05 08:18:57;;;;;;;8.65;6.00;;;;;;;;;;10485771;28;20032;-66
2023/02/05 08:23:59;;;;;;;9.23;5.82;;;;;;;;;;10489659;28;20021;-66
2023/02/05 08:29:00;;;;;;;11.15;6.50;;;;;;;;;;10478359;28;20051;-66
2023/02/05 08:34:01;;;;;;;10.45;6.03;;;;;;;;;;10483586;28;20032;-66
2023/02/05 08:39:03;;;;;;;7.95;5.28;;;;;;;;;;10490032;28;20051;-67
2023/02/05 08:44:03;;;;;;;8.90;5.47;;;;;;;;;;10480111;28;20033;-67
2023/02/05 08:49:05;;;;;;;7.47;5.32;;;;;;;;;;10488446;28;20460;-67
2023/02/05 08:54:08;;;;;;;6.88;5.38;;;;;;;;;;10487750;28;20025;-67
2023/02/05 08:59:10;;;;;;;7.47;5.13;;;;;;;;;;10489030;28;20036;-66
2023/02/05 09:04:14;;;;;;;8.43;5.45;;;;;;;;;;10487749;28;20091;-67
2023/02/05 09:09:15;;;;;;;6.28;5.32;;;;;;;;;;10488692;28;20460;-67
2023/02/05 09:14:16;;;;;;;7.60;5.15;;;;;;;;;;10486958;28;20039;-67
2023/02/05 09:19:16;;;;;;;6.10;4.85;;;;;;;;;;10489030;28;20031;-67
2023/02/05 09:24:17;;;;;;;6.60;4.82;;;;;;;;;;10487439;28;20033;-67
2023/02/05 09:29:18;;;;;;;8.63;5.30;;;;;;;;;;10478846;28;20040;-67
2023/02/05 09:34:18;;;;;;;7.07;4.57;;;;;;;;;;10488138;28;20032;-67
2023/02/05 09:39:19;;;;;;;6.82;5.15;;;;;;;;;;10495956;28;20468;-66
2023/02/05 09:44:47;;;;;;;7.10;5.25;;;;;;;;;;10493842;28;20041;-66
2023/02/05 09:50:24;;;;;;;;;;;;;;;;;;10471097;28;21595;-66
2023/02/05 09:55:32;;;;;;;8.55;5.30;;;;;;;;;;10489597;28;20067;-66
2023/02/05 10:00:45;;;;;;;8.97;5.00;;;;;;;;;;10471278;28;20123;-66
2023/02/05 10:06:30;;;;;;;6.15;4.82;;;;;;;;;;10491904;28;20027;-66
2023/02/05 10:11:42;;;;;;;5.28;4.50;;;;;;;;;;10472857;28;20028;-66
2023/02/05 10:17:01;;;;;;;6.55;4.88;;;;;;;;;;10451589;28;20032;-66
2023/02/05 10:22:13;;;;;;;5.40;4.40;;;;;;;;;;10484639;28;20430;-66
2023/02/05 10:27:50;;;;;;;4.97;4.28;;;;;;;;;;10485020;28;20064;-66
2023/02/05 10:33:04;;;;;;;6.90;4.80;;;;;;;;;;10475046;28;20025;-66
2023/02/05 10:38:15;;;;;;;5.57;4.90;;;;;;;;;;10411242;22;20540;-58
2023/02/05 10:43:44;;;;;;;7.38;4.97;;;;;;;;;;10358289;28;20037;-57
2023/02/05 10:48:44;;;;;;;6.72;4.50;;;;;;;;;;10328977;28;20541;-58
2023/02/05 10:53:45;;;;;;;6.53;4.43;;;;;;;;;;10329335;28;20077;-59
2023/02/05 10:58:59;;;;;;;5.97;4.22;;;;;;;;;;10328969;28;20522;-58
2023/02/05 11:04:12;;;;;;;6.03;4.43;;;;;;;;;;10327557;28;20041;-58
2023/02/05 11:09:33;;;;;;;5.07;3.97;;;;;;;;;;10311976;28;20030;-58
2023/02/05 11:14:39;;;;;;;5.50;4.43;;;;;;;;;;10328422;28;20026;-58
2023/02/05 11:19:40;;;;;;;4.55;3.95;;;;;;;;;;10327324;28;20113;-58
2023/02/05 11:24:41;;;;;;;4.78;3.95;;;;;;;;;;10309996;28;20112;-58
2023/02/05 11:29:42;;;;;;;5.78;4.30;;;;;;;;;;10327313;28;20033;-57
2023/02/05 11:34:43;;;;;;;4.50;3.45;;;;;;;;;;10326809;28;20086;-57
2023/02/05 11:39:45;;;;;;;4.13;3.72;;;;;;;;;;10327255;28;20497;-57
2023/02/05 11:44:57;;;;;;;4.55;4.15;;;;;;;;;;10302621;28;20070;-57
2023/02/05 11:49:59;;;;;;;6.85;4.10;;;;;;;;;;10327388;28;20030;-58
2023/02/05 11:55:00;;;;;;;4.95;3.83;;;;;;;;;;10326594;28;20034;-58
2023/02/05 12:00:15;;;;;;;3.97;3.58;;;;;;;;;;10326199;28;20109;-58
2023/02/05 12:05:15;;;;;;;5.97;3.85;;;;;;;;;;10326747;28;20442;-65
2023/02/05 12:10:36;;;;;;;5.15;3.83;;;;;;;;;;10326146;28;20045;-57
2023/02/05 12:15:52;;;;;;;4.30;3.60;;;;;;;;;;10312030;28;20030;-58
2023/02/05 12:21:35;;;;;;;6.03;3.83;;;;;;;;;;10324786;28;20031;-58
2023/02/05 12:26:40;;;;;;;4.18;3.42;;;;;;;;;;10324323;28;20548;-58
2023/02/05 12:32:16;;;;;;;4.93;3.65;;;;;;;;;;10325615;28;20038;-58
2023/02/05 12:37:54;;;;;;;4.22;3.38;;;;;;;;;;10311916;28;20043;-58
2023/02/05 12:43:26;;;;;;;4.70;3.90;;;;;;;;;;10325823;28;20113;-58
2023/02/05 12:48:55;;;;;;;4.88;3.67;;;;;;;;;;10310847;28;20374;-58
2023/02/05 12:54:12;;;;;;;3.70;3.13;;;;;;;;;;10325777;28;20056;-57
2023/02/05 12:59:34;;;;;;;5.10;3.53;;;;;;;;;;10325798;28;20030;-58
2023/02/05 13:05:25;;;;;;;4.50;3.15;;;;;;;;;;10325381;28;20027;-58
2023/02/05 13:10:36;;;;;;;4.60;3.72;;;;;;;;;;10319579;28;20405;-59
2023/02/05 13:15:48;;;;;;;4.85;3.60;;;;;;;;;;10316951;28;20030;-58
2023/02/05 13:31:37;;;;;;;3.63;3.03;;;;;;;;;;10332003;28;20078;-57
2023/02/05 13:36:53;;;;;;;3.80;3.45;;;;;;;;;;10331414;28;20067;-58
2023/02/05 13:42:44;;;;;;;5.88;3.20;;;;;;;;;;10331996;28;20033;-58
2023/02/05 13:48:26;;;;;;;4.65;3.05;;;;;;;;;;10310976;28;20050;-58
2023/02/05 13:53:38;;;;;;;4.32;3.40;;;;;;;;;;10331798;28;20553;-58
2023/02/05 13:58:48;;;;;;;3.25;2.78;;;;;;;;;;10315093;28;20045;-58
2023/02/05 14:04:06;;;;;;;3.47;3.10;;;;;;;;;;10330017;28;20450;-58
2023/02/05 14:09:25;;;;;;;4.43;3.20;;;;;;;;;;10312457;28;20065;-58
2023/02/05 14:14:31;;;;;;;;;;;;;;;;;;10314997;28;20066;-57
2023/02/05 14:19:55;;;;;;;3.55;3.25;;;;;;;;;;10330260;28;19980;-58
2023/02/05 14:24:56;;;;;;;5.25;2.63;;;;;;;;;;10330922;28;20026;-58
2023/02/05 14:30:29;;;;;;;3.40;3.08;;;;;;;;;;10302139;28;20033;-58
2023/02/05 14:35:38;;;;;;;3.25;2.95;;;;;;;;;;10323609;28;20057;-58
2023/02/05 14:40:39;;;;;;;3.72;3.05;;;;;;;;;;10328957;28;20030;-58
2023/02/05 14:45:47;;;;;;;3.75;3.08;;;;;;;;;;10312415;28;20106;-58
2023/02/05 14:51:01;;;;;;;4.32;3.00;;;;;;;;;;10311800;28;20035;-58
2023/02/05 14:56:04;;;;;;;3.72;2.78;;;;;;;;;;10327678;28;20066;-57
2023/02/05 15:01:32;;;;;;;2.95;2.72;;;;;;;;;;10311790;28;20014;-58
2023/02/05 15:06:41;;;;;;;3.13;2.83;;;;;;;;;;10322115;28;20049;-58
2023/02/05 15:11:54;;;;;;;3.22;2.88;;;;;;;;;;10311488;28;20037;-57
2023/02/05 15:17:06;;;;;;;3.97;3.00;;;;;;;;;;10328262;28;20387;-58
2023/02/05 15:22:34;;;;;;;4.32;2.97;;;;;;;;;;10319404;28;20031;-57
2023/02/05 15:27:46;;;;;;;5.90;2.97;;;;;;;;;;10291828;28;20103;-58
2023/02/05 15:33:07;;;;;;;3.10;2.80;;;;;;;;;;10310461;28;20142;-58
2023/02/05 15:38:42;;;;;;;3.45;2.75;;;;;;;;;;10311356;28;20093;-57
2023/02/05 15:43:58;;;;;;;3.22;2.92;;;;;;;;;;10311689;28;20030;-58
2023/02/05 15:49:00;;;;;;;4.22;3.20;;;;;;;;;;10326858;28;20155;-58
2023/02/05 15:54:04;;;;;;;2.92;2.50;;;;;;;;;;10327219;28;20370;-58
2023/02/05 15:59:14;;;;;;;4.07;2.80;;;;;;;;;;10326503;28;20058;-58
2023/02/05 16:04:21;;;;;;;3.55;2.60;;;;;;;;;;10307874;28;20061;-58
2023/02/05 16:09:25;;;;;;;3.83;2.72;;;;;;;;;;10326065;28;20053;-58
2023/02/05 16:14:32;;;;;;;2.92;2.63;;;;;;;;;;10326202;28;20109;-58
2023/02/05 16:19:48;;;;;;;3.15;2.65;;;;;;;;;;10326222;28;20462;-57
2023/02/05 16:24:52;;;;;;;4.95;2.67;;;;;;;;;;10325925;28;20027;-58
2023/02/05 16:29:58;;;;;;;2.92;2.35;;;;;;;;;;10308261;28;20026;-58
2023/02/05 16:35:00;;;;;;;2.95;2.65;;;;;;;;;;10324495;28;20046;-58
2023/02/05 16:40:05;;;;;;;2.97;2.67;;;;;;;;;;10326089;28;20034;-58
2023/02/05 16:45:11;;;;;;;4.50;3.20;;;;;;;;;;10329603;28;20019;-58
2023/02/05 16:50:42;;;;;;;3.38;2.47;;;;;;;;;;10333844;28;20034;-58
2023/02/05 16:55:42;;;;;;;3.00;2.67;;;;;;;;;;10330449;28;20026;-58
2023/02/05 17:00:53;;;;;;;3.10;2.63;;;;;;;;;;10333432;28;20466;-57
2023/02/05 17:06:00;;;;;;;3.20;2.70;;;;;;;;;;10331819;28;20031;-58
2023/02/05 17:11:05;;;;;;;3.25;2.83;;;;;;;;;;10333450;28;20068;-59
2023/02/05 17:16:31;;;;;;;3.72;3.05;;;;;;;;;;10332661;28;20030;-59
2023/02/05 17:21:33;;;;;;;3.63;2.92;;;;;;;;;;10329205;28;20158;-59
2023/02/05 17:26:39;;;;;;;3.70;2.90;;;;;;;;;;10332556;28;20054;-61
2023/02/05 17:31:40;;;;;;;3.20;2.90;;;;;;;;;;10331985;28;20113;-59
2023/02/05 17:36:41;;;;;;;4.20;2.90;;;;;;;;;;10331418;28;20046;-59
2023/02/05 17:47:05;;;;;;;4.72;3.13;;;;;;;;;;10331769;28;20026;-59
2023/02/05 17:52:06;;;;;;;4.28;3.15;;;;;;;;;;10331488;28;20058;-59
2023/02/05 17:57:18;;;;;;;4.43;2.80;;;;;;;;;;10330503;28;20051;-59
2023/02/05 18:02:19;;;;;;;4.00;3.17;;;;;;;;;;10331044;28;20038;-59
2023/02/05 18:07:35;;;;;;;4.32;3.20;;;;;;;;;;10330872;28;20026;-59
2023/02/05 18:12:35;;;;;;;3.53;3.17;;;;;;;;;;10330796;28;20026;-59
2023/02/05 18:17:36;;;;;;;3.60;3.00;;;;;;;;;;10330139;28;20494;-59
2023/02/05 18:22:37;;;;;;;4.00;2.97;;;;;;;;;;10330285;28;20420;-58
2023/02/05 18:27:37;;;;;;;4.03;3.30;;;;;;;;;;10310726;28;20034;-58
2023/02/05 18:32:38;;;;;;;4.30;3.13;;;;;;;;;;10330078;28;20037;-58
2023/02/05 18:37:43;;;;;;;4.30;3.30;;;;;;;;;;10328681;28;20043;-55
2023/02/05 18:42:45;;;;;;;3.33;3.03;;;;;;;;;;10329841;28;20218;-57
2023/02/05 18:47:47;;;;;;;3.47;3.17;;;;;;;;;;10328224;28;20074;-56
2023/02/05 18:52:47;;;;;;;4.60;3.78;;;;;;;;;;10327415;28;20030;-56
2023/02/05 18:57:50;;;;;;;4.10;3.58;;;;;;;;;;10328418;28;20034;-58
2023/02/05 19:02:51;;;;;;;4.60;3.50;;;;;;;;;;10328914;28;20026;-58
2023/02/05 19:07:51;;;;;;;4.65;3.38;;;;;;;;;;10326825;28;20533;-58
2023/02/05 19:12:52;;;;;;;5.90;3.75;;;;;;;;;;10322261;28;20026;-57
2023/02/05 19:17:53;;;;;;;20.77;5.70;;;;;;;;;;10320494;28;20038;-58
2023/02/05 19:22:54;;;;;;;14.88;4.22;;;;;;;;;;10326240;28;20060;-59
2023/02/05 19:27:55;;;;;;;8.82;4.60;;;;;;;;;;10326692;28;20038;-58
2023/02/05 19:32:55;;;;;;;9.43;4.63;;;;;;;;;;10323874;28;20022;-57
2023/02/05 19:37:56;;;;;;;7.07;4.10;;;;;;;;;;10328016;28;20047;-58
2023/02/05 19:42:58;;;;;;;7.22;3.97;;;;;;;;;;10324203;28;20030;-58
2023/02/05 19:47:58;;;;;;;6.90;4.15;;;;;;;;;;10326278;28;20041;-56
2023/02/05 19:52:59;;;;;;;6.80;4.00;;;;;;;;;;10325462;28;20038;-57
2023/02/05 19:58:00;;;;;;;15.15;3.85;;;;;;;;;;10327297;28;20118;-57
2023/02/05 20:03:01;;;;;;;8.95;4.13;;;;;;;;;;10325882;28;20486;-57
2023/02/05 20:08:01;;;;;;;9.38;3.85;;;;;;;;;;10324690;28;20171;-57
2023/02/05 20:13:02;;;;;;;6.55;3.97;;;;;;;;;;10320439;28;20029;-57
2023/02/05 20:18:03;;;;;;;8.05;4.00;;;;;;;;;;10326232;28;20038;-57
2023/02/05 20:23:03;;;;;;;7.38;3.47;;;;;;;;;;10323758;28;20037;-57
2023/02/05 20:28:04;;;;;;;6.88;3.85;;;;;;;;;;10324528;28;20096;-57
2023/02/05 20:33:06;;;;;;;7.32;4.10;;;;;;;;;;10324832;28;20045;-57
2023/02/05 20:38:07;;;;;;;10.20;4.57;;;;;;;;;;10296369;28;20047;-59
2023/02/05 20:43:08;;;;;;;7.22;4.25;;;;;;;;;;10320372;28;20113;-62
2023/02/05 20:48:08;;;;;;;9.05;4.22;;;;;;;;;;10323855;28;20037;-58
2023/02/05 20:53:09;;;;;;;8.50;3.88;;;;;;;;;;10325000;28;20026;-62
2023/02/05 20:58:09;;;;;;;5.05;3.47;;;;;;;;;;10323046;28;20034;-59
2023/02/05 21:03:10;;;;;;;8.35;4.05;;;;;;;;;;10325052;28;20088;-58
2023/02/05 21:08:10;;;;;;;20.60;5.82;;;;;;;;;;10319912;28;20039;-58
2023/02/05 21:13:11;;;;;;;18.23;4.95;;;;;;;;;;10323107;28;20030;-57
2023/02/05 21:18:12;;;;;;;14.32;4.85;;;;;;;;;;10304285;28;20097;-58
2023/02/05 21:23:13;;;;;;;14.13;5.22;;;;;;;;;;10313469;28;20030;-57
2023/02/05 21:28:13;;;;;;;11.40;5.20;;;;;;;;;;10327082;28;20031;-58
2023/02/05 21:33:14;;;;;;;13.55;4.45;;;;;;;;;;10329913;28;20030;-56
2023/02/05 21:38:14;;;;;;;9.18;4.22;;;;;;;;;;10332098;28;20042;-56
2023/02/05 21:43:15;;;;;;;10.23;3.90;;;;;;;;;;10330415;28;20035;-58
2023/02/05 21:48:16;;;;;;;13.00;3.95;;;;;;;;;;10328784;28;20033;-58
2023/02/05 21:53:16;;;;;;;7.60;3.72;;;;;;;;;;10327090;28;20082;-59
2023/02/05 21:58:17;;;;;;;8.95;3.80;;;;;;;;;;10265857;28;20039;-58
2023/02/05 22:03:17;;;;;;;7.82;3.83;;;;;;;;;;10283031;28;20038;-58
2023/02/05 22:08:18;;;;;;;5.93;4.00;;;;;;;;;;10286462;28;20030;-58
2023/02/05 22:13:18;;;;;;;12.88;3.95;;;;;;;;;;10284640;28;20478;-58
2023/02/05 22:18:19;;;;;;;6.55;3.65;;;;;;;;;;10289665;28;20582;-57
2023/02/05 22:23:20;;;;;;;7.60;3.70;;;;;;;;;;10289752;28;20026;-58
2023/02/05 22:28:20;;;;;;;8.25;3.63;;;;;;;;;;10290353;28;20027;-57
2023/02/05 22:33:21;;;;;;;9.38;4.10;;;;;;;;;;10289870;28;20382;-58
2023/02/05 22:38:22;;;;;;;10.20;4.25;;;;;;;;;;10318214;28;20391;-57
2023/02/05 22:43:22;;;;;;;8.63;4.03;;;;;;;;;;10329579;28;20022;-57
2023/02/05 22:48:23;;;;;;;6.20;3.40;;;;;;;;;;10329322;28;20386;-57
2023/02/05 22:53:23;;;;;;;5.78;3.60;;;;;;;;;;10329755;28;20560;-57
2023/02/05 22:58:24;;;;;;;5.93;3.20;;;;;;;;;;10329460;28;20034;-57
2023/02/05 23:03:25;;;;;;;8.93;3.70;;;;;;;;;;10329203;28;20033;-57
2023/02/05 23:08:25;;;;;;;8.20;3.08;;;;;;;;;;10329103;28;20031;-58
2023/02/05 23:13:26;;;;;;;8.95;3.50;;;;;;;;;;10323539;28;20030;-58
2023/02/05 23:18:26;;;;;;;7.95;3.80;;;;;;;;;;10328530;28;20038;-58
2023/02/05 23:23:27;;;;;;;7.40;3.60;;;;;;;;;;10328309;28;20054;-58
2023/02/05 23:28:27;;;;;;;5.57;3.50;;;;;;;;;;10327718;28;20517;-59
2023/02/05 23:33:30;;;;;;;7.65;3.13;;;;;;;;;;10327703;28;20030;-58
2023/02/05 23:38:31;;;;;;;4.50;3.42;;;;;;;;;;10327262;28;20121;-58
2023/02/05 23:43:33;;;;;;;4.45;3.30;;;;;;;;;;10327753;28;20018;-58
2023/02/05 23:48:34;;;;;;;3.70;3.13;;;;;;;;;;10327227;28;20050;-58
2023/02/05 23:53:34;;;;;;;5.88;3.40;;;;;;;;;;10326770;28;20027;-58
2023/02/05 23:58:35;;;;;;;6.32;3.38;;;;;;;;;;10327110;28;20026;-57
